Time,TemperatureF,DewpointF,PressureIn,WindDirection,WindDirectionDegrees,WindSpeedMPH,WindSpeedGustMPH,Humidity,HourlyPrecipIn,Conditions,Clouds,dailyrainin,SoftwareType,DateUTC
2013-03-05 00:00:00,31.7,24.4,30.07,SW,230,0.0,0.0,74,0.00,,---,0.00,VWS V14.01,2013-03-05 05:00:00,
2013-03-05 00:01:00,31.7,24.0,30.07,SW,230,0.0,0.0,73,0.00,,---,0.00,VWS V14.01,2013-03-05 05:01:00,
2013-03-05 00:02:00,31.7,24.0,30.07,SW,230,0.0,0.0,73,0.00,,---,0.00,VWS V14.01,2013-03-05 05:02:00,
2013-03-05 00:07:00,31.6,23.6,30.07,SW,230,0.0,0.0,72,0.00,,---,0.00,VWS V14.01,2013-03-05 05:07:00,
2013-03-05 00:10:00,32.6,24.2,30.06,West,281,0.0,0.0,71,0.00,,---,0.00,VWS V14.01,2013-03-05 05:10:00,
2013-03-05 00:12:00,31.5,23.9,30.07,SW,230,0.0,0.0,73,0.00,,---,0.00,VWS V14.01,2013-03-05 05:12:00,
2013-03-05 00:17:00,31.6,24.0,30.07,SW,230,0.0,0.0,73,0.00,,---,0.00,VWS V14.01,2013-03-05 05:17:00,
2013-03-05 00:20:00,32.8,25.4,30.06,West,281,0.0,1.0,74,0.00,,---,0.00,VWS V14.01,2013-03-05 05:20:00,
2013-03-05 00:22:00,31.5,23.2,30.07,SW,230,1.0,2.0,71,0.00,,---,0.00,VWS V14.01,2013-03-05 05:22:00,
2013-03-05 00:27:00,31.5,23.2,30.07,SW,230,1.0,2.0,71,0.00,,---,0.00,VWS V14.01,2013-03-05 05:27:00,
2013-03-05 00:30:00,32.8,24.8,30.06,West,281,0.0,1.0,72,0.00,,---,0.00,VWS V14.01,2013-03-05 05:30:00,
2013-03-05 00:32:00,31.7,23.4,30.06,West,281,1.0,2.0,71,0.00,,---,0.00,VWS V14.01,2013-03-05 05:32:00,
2013-03-05 00:37:00,32.1,24.1,30.06,West,281,0.0,2.0,72,0.00,,---,0.00,VWS V14.01,2013-03-05 05:37:00,
2013-03-05 00:40:00,33.2,25.2,30.06,West,281,0.0,0.0,72,0.00,,---,0.00,VWS V14.01,2013-03-05 05:40:00,
2013-03-05 00:42:00,32.3,24.0,30.06,West,281,0.0,0.0,71,0.00,,---,0.00,VWS V14.01,2013-03-05 05:42:00,
2013-03-05 00:47:00,32.3,23.3,30.06,West,281,0.0,0.0,69,0.00,,---,0.00,VWS V14.01,2013-03-05 05:47:00,
2013-03-05 00:50:00,33.4,24.7,30.07,West,281,0.0,0.0,70,0.00,,---,0.00,VWS V14.01,2013-03-05 05:50:00,
2013-03-05 00:52:00,32.5,23.1,30.06,West,281,0.0,0.0,68,0.00,,---,0.00,VWS V14.01,2013-03-05 05:52:00,
2013-03-05 00:57:00,32.7,23.3,30.06,West,281,0.0,0.0,68,0.00,,---,0.00,VWS V14.01,2013-03-05 05:57:00,
2013-03-05 01:00:00,33.7,26.0,30.07,WNW,291,2.0,2.0,73,0.00,,---,0.00,VWS V14.01,2013-03-05 06:00:00,
2013-03-05 01:03:00,32.7,24.4,30.07,West,281,0.0,0.0,71,0.00,,---,0.00,VWS V14.01,2013-03-05 06:03:00,
2013-03-05 01:08:00,32.6,24.2,30.06,West,281,0.0,0.0,71,0.00,,---,0.00,VWS V14.01,2013-03-05 06:08:00,
2013-03-05 01:10:00,33.9,25.8,30.07,WNW,291,2.0,2.0,72,0.00,,---,0.00,VWS V14.01,2013-03-05 06:10:00,
2013-03-05 01:13:00,32.6,23.9,30.07,West,281,0.0,0.0,70,0.00,,---,0.00,VWS V14.01,2013-03-05 06:13:00,
2013-03-05 01:18:00,32.7,25.3,30.07,West,281,1.0,1.0,74,0.00,,---,0.00,VWS V14.01,2013-03-05 06:18:00,
2013-03-05 01:20:00,33.7,25.6,30.06,WNW,291,0.0,2.0,72,0.00,,---,0.00,VWS V14.01,2013-03-05 06:20:00,
2013-03-05 01:23:00,32.9,25.5,30.07,West,281,1.0,1.0,74,0.00,,---,0.00,VWS V14.01,2013-03-05 06:23:00,
2013-03-05 01:28:00,32.8,24.5,30.07,West,281,0.0,1.0,71,0.00,,---,0.00,VWS V14.01,2013-03-05 06:28:00,
2013-03-05 01:30:00,33.8,25.8,30.07,WNW,291,0.0,1.0,72,0.00,,---,0.00,VWS V14.01,2013-03-05 06:30:00,
2013-03-05 01:33:00,32.9,24.9,30.06,West,281,0.0,0.0,72,0.00,,---,0.00,VWS V14.01,2013-03-05 06:33:00,
2013-03-05 01:38:00,33.2,25.2,30.06,West,281,0.0,0.0,72,0.00,,---,0.00,VWS V14.01,2013-03-05 06:38:00,
2013-03-05 01:40:00,34.3,25.9,30.06,WNW,291,0.0,1.0,71,0.00,,---,0.00,VWS V14.01,2013-03-05 06:40:00,
2013-03-05 01:43:00,33.3,24.9,30.06,West,281,0.0,0.0,71,0.00,,---,0.00,VWS V14.01,2013-03-05 06:43:00,
2013-03-05 01:48:00,33.4,24.7,30.07,West,281,0.0,0.0,70,0.00,,---,0.00,VWS V14.01,2013-03-05 06:48:00,
2013-03-05 01:50:00,34.5,26.4,30.06,WNW,291,0.0,1.0,72,0.00,,---,0.00,VWS V14.01,2013-03-05 06:50:00,
2013-03-05 01:53:00,33.5,24.1,30.07,West,281,0.0,0.0,68,0.00,,---,0.00,VWS V14.01,2013-03-05 06:53:00,
2013-03-05 01:58:00,33.7,25.6,30.07,WNW,291,2.0,2.0,72,0.00,,---,0.00,VWS V14.01,2013-03-05 06:58:00,
2013-03-05 02:00:00,34.3,26.2,30.06,WNW,291,0.0,2.0,72,0.00,,---,0.00,VWS V14.01,2013-03-05 07:00:00,
2013-03-05 02:03:00,33.9,25.8,30.07,WNW,291,0.0,2.0,72,0.00,,---,0.00,VWS V14.01,2013-03-05 07:03:00,
2013-03-05 02:08:00,34.0,25.9,30.07,WNW,291,1.0,2.0,72,0.00,,---,0.00,VWS V14.01,2013-03-05 07:08:00,
2013-03-05 02:10:00,34.2,26.1,30.06,WNW,291,0.0,2.0,72,0.00,,---,0.00,VWS V14.01,2013-03-05 07:10:00,
2013-03-05 02:14:00,33.8,26.1,30.07,WNW,291,0.0,2.0,73,0.00,,---,0.00,VWS V14.01,2013-03-05 07:14:00,
2013-03-05 02:19:00,33.7,25.6,30.06,WNW,291,1.0,2.0,72,0.00,,---,0.00,VWS V14.01,2013-03-05 07:19:00,
2013-03-05 02:20:00,34.3,27.2,30.05,WNW,291,0.0,1.0,75,0.00,,---,0.00,VWS V14.01,2013-03-05 07:20:00,
2013-03-05 02:24:00,33.7,25.3,30.06,WNW,291,0.0,0.0,71,0.00,,---,0.00,VWS V14.01,2013-03-05 07:24:00,
2013-03-05 02:29:00,33.8,26.1,30.07,WNW,291,0.0,1.0,73,0.00,,---,0.00,VWS V14.01,2013-03-05 07:29:00,
2013-03-05 02:30:00,34.4,26.7,30.05,WNW,291,0.0,1.0,73,0.00,,---,0.00,VWS V14.01,2013-03-05 07:30:00,
2013-03-05 02:34:00,34.0,25.3,30.06,WNW,291,0.0,1.0,70,0.00,,---,0.00,VWS V14.01,2013-03-05 07:34:00,
2013-03-05 02:39:00,34.2,25.8,30.06,WNW,291,0.0,1.0,71,0.00,,---,0.00,VWS V14.01,2013-03-05 07:39:00,
2013-03-05 02:40:00,34.6,26.9,30.05,WNW,291,1.0,1.0,73,0.00,,---,0.00,VWS V14.01,2013-03-05 07:40:00,
2013-03-05 02:44:00,34.4,26.3,30.06,WNW,291,0.0,1.0,72,0.00,,---,0.00,VWS V14.01,2013-03-05 07:44:00,
2013-03-05 02:49:00,34.5,26.4,30.06,WNW,291,0.0,1.0,72,0.00,,---,0.00,VWS V14.01,2013-03-05 07:49:00,
2013-03-05 02:50:00,34.3,26.2,30.05,WNW,291,0.0,2.0,72,0.00,,---,0.00,VWS V14.01,2013-03-05 07:50:00,
2013-03-05 02:54:00,34.4,26.7,30.06,WNW,291,1.0,1.0,73,0.00,,---,0.00,VWS V14.01,2013-03-05 07:54:00,
2013-03-05 02:59:00,34.3,26.2,30.06,WNW,291,0.0,2.0,72,0.00,,---,0.00,VWS V14.01,2013-03-05 07:59:00,
2013-03-05 03:00:00,34.8,27.4,30.05,WNW,291,0.0,0.0,74,0.00,,---,0.00,VWS V14.01,2013-03-05 08:00:00,
2013-03-05 03:04:00,34.1,26.4,30.06,WNW,291,0.0,1.0,73,0.00,,---,0.00,VWS V14.01,2013-03-05 08:04:00,
2013-03-05 03:09:00,34.1,26.0,30.06,WNW,291,1.0,2.0,72,0.00,,---,0.00,VWS V14.01,2013-03-05 08:09:00,
2013-03-05 03:10:00,34.6,26.9,30.05,WNW,291,0.0,2.0,73,0.00,,---,0.00,VWS V14.01,2013-03-05 08:10:00,
2013-03-05 03:14:00,34.1,26.4,30.05,WNW,291,0.0,1.0,73,0.00,,---,0.00,VWS V14.01,2013-03-05 08:14:00,
2013-03-05 03:19:00,34.3,27.2,30.05,WNW,291,0.0,1.0,75,0.00,,---,0.00,VWS V14.01,2013-03-05 08:19:00,
2013-03-05 03:20:00,34.9,26.1,30.05,WNW,291,0.0,0.0,70,0.00,,---,0.00,VWS V14.01,2013-03-05 08:20:00,
2013-03-05 03:24:00,34.3,26.2,30.05,WNW,291,0.0,1.0,72,0.00,,---,0.00,VWS V14.01,2013-03-05 08:24:00,
2013-03-05 03:30:00,34.4,26.7,30.05,WNW,291,0.0,0.0,73,0.00,,---,0.00,VWS V14.01,2013-03-05 08:30:00,
2013-03-05 03:35:00,34.6,26.9,30.05,WNW,291,0.0,0.0,73,0.00,,---,0.00,VWS V14.01,2013-03-05 08:35:00,
2013-03-05 03:40:00,34.6,26.9,30.05,WNW,291,1.0,1.0,73,0.00,,---,0.00,VWS V14.01,2013-03-05 08:40:00,
2013-03-05 03:45:00,34.3,26.6,30.05,WNW,291,0.0,2.0,73,0.00,,---,0.00,VWS V14.01,2013-03-05 08:45:00,
2013-03-05 03:50:00,34.3,26.2,30.05,WNW,291,0.0,0.0,72,0.00,,---,0.00,VWS V14.01,2013-03-05 08:50:00,
2013-03-05 03:55:00,34.6,26.5,30.05,WNW,291,0.0,0.0,72,0.00,,---,0.00,VWS V14.01,2013-03-05 08:55:00,
2013-03-05 04:00:00,34.8,27.4,30.05,WNW,291,0.0,0.0,74,0.00,,---,0.00,VWS V14.01,2013-03-05 09:00:00,
2013-03-05 04:05:00,34.8,26.7,30.05,WNW,291,1.0,1.0,72,0.00,,---,0.00,VWS V14.01,2013-03-05 09:05:00,
2013-03-05 04:10:00,34.6,26.9,30.05,WNW,291,0.0,0.0,73,0.00,,---,0.00,VWS V14.01,2013-03-05 09:10:00,
2013-03-05 04:15:00,34.7,25.9,30.05,WNW,291,0.0,0.0,70,0.00,,---,0.00,VWS V14.01,2013-03-05 09:15:00,
2013-03-05 04:20:00,34.8,25.7,30.05,WNW,291,1.0,1.0,69,0.00,,---,0.00,VWS V14.01,2013-03-05 09:20:00,
2013-03-05 04:26:00,34.7,27.3,30.05,WNW,291,0.0,1.0,74,0.00,,---,0.00,VWS V14.01,2013-03-05 09:26:00,
2013-03-05 04:30:00,33.5,27.1,30.05,WNW,291,1.0,1.0,77,0.00,,---,0.00,VWS V14.01,2013-03-05 09:30:00,
2013-03-05 04:31:00,34.4,27.3,30.05,WNW,291,0.0,0.0,75,0.00,,---,0.00,VWS V14.01,2013-03-05 09:31:00,
2013-03-05 04:36:00,34.2,27.1,30.05,WNW,291,0.0,0.0,75,0.00,,---,0.00,VWS V14.01,2013-03-05 09:36:00,
2013-03-05 04:40:00,33.3,26.6,30.04,WNW,291,2.0,2.0,76,0.00,,---,0.00,VWS V14.01,2013-03-05 09:40:00,
2013-03-05 04:41:00,34.0,27.2,30.05,WNW,291,0.0,1.0,76,0.00,,---,0.00,VWS V14.01,2013-03-05 09:41:00,
2013-03-05 04:46:00,33.9,26.5,30.05,WNW,291,0.0,1.0,74,0.00,,---,0.00,VWS V14.01,2013-03-05 09:46:00,
2013-03-05 04:50:00,32.8,26.1,30.04,WNW,291,0.0,2.0,76,0.00,,---,0.00,VWS V14.01,2013-03-05 09:50:00,
2013-03-05 04:51:00,33.9,27.1,30.05,WNW,291,1.0,2.0,76,0.00,,---,0.00,VWS V14.01,2013-03-05 09:51:00,
2013-03-05 04:56:00,33.7,26.3,30.05,WNW,291,0.0,2.0,74,0.00,,---,0.00,VWS V14.01,2013-03-05 09:56:00,
2013-03-05 05:00:00,32.9,26.5,30.04,West,278,0.0,3.0,77,0.00,,---,0.00,VWS V14.01,2013-03-05 10:00:00,
2013-03-05 05:01:00,33.7,26.0,30.05,WNW,291,0.0,0.0,73,0.00,,---,0.00,VWS V14.01,2013-03-05 10:01:00,
2013-03-05 05:06:00,33.7,26.3,30.05,WNW,291,0.0,0.0,74,0.00,,---,0.00,VWS V14.01,2013-03-05 10:06:00,
2013-03-05 05:10:00,32.9,26.5,30.04,West,278,0.0,1.0,77,0.00,,---,0.00,VWS V14.01,2013-03-05 10:10:00,
2013-03-05 05:11:00,33.5,26.8,30.05,WNW,291,0.0,0.0,76,0.00,,---,0.00,VWS V14.01,2013-03-05 10:11:00,
2013-03-05 05:16:00,33.5,26.1,30.05,WNW,291,0.0,0.0,74,0.00,,---,0.00,VWS V14.01,2013-03-05 10:16:00,
2013-03-05 05:20:00,33.3,26.9,30.04,West,278,1.0,1.0,77,0.00,,---,0.00,VWS V14.01,2013-03-05 10:20:00,
2013-03-05 05:21:00,33.5,26.8,30.05,WNW,291,0.0,0.0,76,0.00,,---,0.00,VWS V14.01,2013-03-05 10:21:00,
2013-03-05 05:27:00,33.6,26.9,30.05,WNW,291,0.0,0.0,76,0.00,,---,0.00,VWS V14.01,2013-03-05 10:27:00,
2013-03-05 05:30:00,33.5,27.1,30.04,West,278,0.0,1.0,77,0.00,,---,0.00,VWS V14.01,2013-03-05 10:30:00,
2013-03-05 05:32:00,33.5,27.1,30.05,WNW,291,0.0,1.0,77,0.00,,---,0.00,VWS V14.01,2013-03-05 10:32:00,
2013-03-05 05:37:00,33.4,26.7,30.04,WNW,291,0.0,1.0,76,0.00,,---,0.00,VWS V14.01,2013-03-05 10:37:00,
2013-03-05 05:40:00,33.7,27.0,30.04,West,278,1.0,2.0,76,0.00,,---,0.00,VWS V14.01,2013-03-05 10:40:00,
2013-03-05 05:42:00,33.1,26.4,30.05,WNW,291,2.0,2.0,76,0.00,,---,0.00,VWS V14.01,2013-03-05 10:42:00,
2013-03-05 05:47:00,32.8,26.1,30.04,WNW,291,0.0,2.0,76,0.00,,---,0.00,VWS V14.01,2013-03-05 10:47:00,
2013-03-05 05:50:00,33.7,27.3,30.04,West,278,1.0,3.0,77,0.00,,---,0.00,VWS V14.01,2013-03-05 10:50:00,
2013-03-05 05:52:00,32.8,26.4,30.03,WNW,291,0.0,1.0,77,0.00,,---,0.00,VWS V14.01,2013-03-05 10:52:00,
2013-03-05 05:57:00,33.0,26.6,30.04,West,278,2.0,3.0,77,0.00,,---,0.00,VWS V14.01,2013-03-05 10:57:00,
2013-03-05 06:00:00,33.3,26.9,30.04,West,278,0.0,2.0,77,0.00,,---,0.00,VWS V14.01,2013-03-05 11:00:00,
2013-03-05 06:02:00,32.8,26.7,30.04,West,278,0.0,0.0,78,0.00,,---,0.00,VWS V14.01,2013-03-05 11:02:00,
2013-03-05 06:07:00,32.8,26.1,30.04,West,278,0.0,1.0,76,0.00,,---,0.00,VWS V14.01,2013-03-05 11:07:00,
2013-03-05 06:10:00,33.2,27.1,30.04,West,278,0.0,1.0,78,0.00,,---,0.00,VWS V14.01,2013-03-05 11:10:00,
2013-03-05 06:12:00,33.0,26.6,30.04,West,278,0.0,0.0,77,0.00,,---,0.00,VWS V14.01,2013-03-05 11:12:00,
2013-03-05 06:17:00,33.2,26.8,30.04,West,278,0.0,0.0,77,0.00,,---,0.00,VWS V14.01,2013-03-05 11:17:00,
2013-03-05 06:20:00,33.7,27.6,30.04,West,278,0.0,1.0,78,0.00,,---,0.00,VWS V14.01,2013-03-05 11:20:00,
2013-03-05 06:22:00,33.3,26.9,30.04,West,278,0.0,1.0,77,0.00,,---,0.00,VWS V14.01,2013-03-05 11:22:00,
2013-03-05 06:28:00,33.5,27.1,30.04,West,278,0.0,1.0,77,0.00,,---,0.00,VWS V14.01,2013-03-05 11:28:00,
2013-03-05 06:30:00,34.2,28.7,30.02,WNW,290,2.0,2.0,80,0.00,,---,0.00,VWS V14.01,2013-03-05 11:30:00,
2013-03-05 06:33:00,33.5,26.8,30.03,West,278,0.0,1.0,76,0.00,,---,0.00,VWS V14.01,2013-03-05 11:33:00,
2013-03-05 06:38:00,33.6,26.9,30.04,West,278,0.0,1.0,76,0.00,,---,0.00,VWS V14.01,2013-03-05 11:38:00,
2013-03-05 06:40:00,34.3,28.5,30.02,NW,318,2.0,2.0,79,0.00,,---,0.00,VWS V14.01,2013-03-05 11:40:00,
2013-03-05 06:43:00,33.8,27.4,30.04,West,278,1.0,3.0,77,0.00,,---,0.00,VWS V14.01,2013-03-05 11:43:00,
2013-03-05 06:48:00,33.8,27.4,30.04,West,278,0.0,3.0,77,0.00,,---,0.00,VWS V14.01,2013-03-05 11:48:00,
2013-03-05 06:50:00,35.2,28.1,30.02,NW,318,0.0,2.0,75,0.00,,---,0.00,VWS V14.01,2013-03-05 11:50:00,
2013-03-05 06:53:00,33.5,27.1,30.04,West,278,0.0,1.0,77,0.00,,---,0.00,VWS V14.01,2013-03-05 11:53:00,
2013-03-05 06:58:00,33.4,27.3,30.04,West,278,1.0,2.0,78,0.00,,---,0.00,VWS V14.01,2013-03-05 11:58:00,
2013-03-05 07:00:00,36.4,29.2,30.02,NW,318,0.0,1.0,75,0.00,,---,0.00,VWS V14.01,2013-03-05 12:00:00,
2013-03-05 07:03:00,33.3,27.2,30.04,West,278,1.0,1.0,78,0.00,,---,0.00,VWS V14.01,2013-03-05 12:03:00,
2013-03-05 07:08:00,33.2,27.1,30.04,West,278,1.0,1.0,78,0.00,,---,0.00,VWS V14.01,2013-03-05 12:08:00,
2013-03-05 07:10:00,38.0,29.1,30.02,NW,318,2.0,2.0,70,0.00,,---,0.00,VWS V14.01,2013-03-05 12:10:00,
2013-03-05 07:13:00,33.3,27.2,30.05,West,278,1.0,1.0,78,0.00,,---,0.00,VWS V14.01,2013-03-05 12:13:00,
2013-03-05 07:18:00,33.6,27.5,30.04,West,278,0.0,1.0,78,0.00,,---,0.00,VWS V14.01,2013-03-05 12:18:00,
2013-03-05 07:20:00,39.6,28.8,30.04,WNW,285,2.0,2.0,65,0.00,,---,0.00,VWS V14.01,2013-03-05 12:20:00,
2013-03-05 07:23:00,34.0,28.2,30.03,West,278,1.0,2.0,79,0.00,,---,0.00,VWS V14.01,2013-03-05 12:23:00,
2013-03-05 07:28:00,34.2,28.7,30.02,WNW,292,2.0,2.0,80,0.00,,---,0.00,VWS V14.01,2013-03-05 12:28:00,
2013-03-05 07:30:00,40.9,28.5,30.02,WNW,285,0.0,3.0,61,0.00,,---,0.00,VWS V14.01,2013-03-05 12:30:00,
2013-03-05 07:33:00,34.2,28.7,30.02,WNW,290,0.0,2.0,80,0.00,,---,0.00,VWS V14.01,2013-03-05 12:33:00,
2013-03-05 07:38:00,34.3,28.2,30.02,NW,318,1.0,2.0,78,0.00,,---,0.00,VWS V14.01,2013-03-05 12:38:00,
2013-03-05 07:40:00,41.6,27.9,30.02,NE,38,2.0,2.0,58,0.00,,---,0.00,VWS V14.01,2013-03-05 12:40:00,
2013-03-05 07:44:00,34.7,28.2,30.02,NW,318,0.0,2.0,77,0.00,,---,0.00,VWS V14.01,2013-03-05 12:44:00,
2013-03-05 07:49:00,35.1,28.0,30.02,NW,318,0.0,2.0,75,0.00,,---,0.00,VWS V14.01,2013-03-05 12:49:00,
2013-03-05 07:50:00,41.9,28.2,30.02,NE,38,0.0,2.0,58,0.00,,---,0.00,VWS V14.01,2013-03-05 12:50:00,
2013-03-05 07:54:00,35.7,28.6,30.02,NW,318,0.0,0.0,75,0.00,,---,0.00,VWS V14.01,2013-03-05 12:54:00,
2013-03-05 07:59:00,36.4,29.2,30.02,NW,318,0.0,1.0,75,0.00,,---,0.00,VWS V14.01,2013-03-05 12:59:00,
2013-03-05 08:00:00,42.6,24.8,30.02,NE,38,2.0,2.0,49,0.00,,---,0.00,VWS V14.01,2013-03-05 13:00:00,
2013-03-05 08:04:00,37.0,29.2,30.03,NW,318,0.0,1.0,73,0.00,,---,0.00,VWS V14.01,2013-03-05 13:04:00,
2013-03-05 08:09:00,38.0,29.1,30.02,NW,318,2.0,2.0,70,0.00,,---,0.00,VWS V14.01,2013-03-05 13:09:00,
2013-03-05 08:10:00,43.6,23.7,30.01,NE,38,1.0,2.0,45,0.00,,---,0.00,VWS V14.01,2013-03-05 13:10:00,
2013-03-05 08:15:00,38.9,29.6,30.03,NW,316,2.0,2.0,69,0.00,,---,0.00,VWS V14.01,2013-03-05 13:15:00,
2013-03-05 08:20:00,39.6,28.8,30.03,WNW,285,1.0,2.0,65,0.00,,---,0.00,VWS V14.01,2013-03-05 13:20:00,
2013-03-05 08:25:00,40.3,27.1,30.03,WNW,285,0.0,3.0,59,0.00,,---,0.00,VWS V14.01,2013-03-05 13:25:00,
2013-03-05 08:30:00,41.0,29.0,30.02,WNW,285,0.0,0.0,62,0.00,,---,0.00,VWS V14.01,2013-03-05 13:30:00,
2013-03-05 08:35:00,41.5,28.7,30.02,NE,38,0.0,2.0,60,0.00,,---,0.00,VWS V14.01,2013-03-05 13:35:00,
2013-03-05 08:40:00,41.6,27.9,30.02,NE,38,1.0,2.0,58,0.00,,---,0.00,VWS V14.01,2013-03-05 13:40:00,
2013-03-05 08:45:00,41.8,27.3,30.03,NE,38,0.0,2.0,56,0.00,,---,0.00,VWS V14.01,2013-03-05 13:45:00,
2013-03-05 08:50:00,42.0,28.7,30.02,NE,38,0.0,0.0,59,0.00,,---,0.00,VWS V14.01,2013-03-05 13:50:00,
2013-03-05 08:55:00,42.2,25.9,30.02,NE,38,0.0,1.0,52,0.00,,---,0.00,VWS V14.01,2013-03-05 13:55:00,
2013-03-05 09:00:00,44.6,22.9,30.00,SSE,157,2.0,3.0,42,0.00,,---,0.00,VWS V14.01,2013-03-05 14:00:00,
2013-03-05 09:01:00,42.7,23.9,30.01,NE,38,1.0,2.0,47,0.00,,---,0.00,VWS V14.01,2013-03-05 14:01:00,
2013-03-05 09:06:00,43.2,23.3,30.01,NE,38,0.0,2.0,45,0.00,,---,0.00,VWS V14.01,2013-03-05 14:06:00,
2013-03-05 09:10:00,45.2,22.9,30.00,ESE,117,1.0,4.0,41,0.00,,---,0.00,VWS V14.01,2013-03-05 14:10:00,
2013-03-05 09:11:00,43.8,23.3,30.01,NE,38,0.0,3.0,44,0.00,,---,0.00,VWS V14.01,2013-03-05 14:11:00,
2013-03-05 09:16:00,44.3,23.2,30.02,NE,38,1.0,3.0,43,0.00,,---,0.00,VWS V14.01,2013-03-05 14:16:00,
2013-03-05 09:20:00,45.5,23.2,30.00,SSE,167,3.0,4.0,41,0.00,,---,0.00,VWS V14.01,2013-03-05 14:20:00,
2013-03-05 09:21:00,44.7,20.7,30.01,NE,40,2.0,2.0,38,0.00,,---,0.00,VWS V14.01,2013-03-05 14:21:00,
2013-03-05 09:26:00,44.8,22.0,30.01,East,90,3.0,3.0,40,0.00,,---,0.00,VWS V14.01,2013-03-05 14:26:00,
2013-03-05 09:30:00,46.5,23.5,29.99,South,180,3.0,6.0,40,0.00,,---,0.00,VWS V14.01,2013-03-05 14:30:00,
2013-03-05 09:31:00,44.8,20.8,30.01,East,101,1.0,2.0,38,0.00,,---,0.00,VWS V14.01,2013-03-05 14:31:00,
2013-03-05 09:36:00,44.7,21.9,30.01,ESE,121,0.0,2.0,40,0.00,,---,0.00,VWS V14.01,2013-03-05 14:36:00,
2013-03-05 09:40:00,47.4,23.1,29.98,SE,146,1.0,5.0,38,0.00,,---,0.00,VWS V14.01,2013-03-05 14:40:00,
2013-03-05 09:41:00,44.7,22.5,30.00,SSE,148,3.0,3.0,41,0.00,,---,0.00,VWS V14.01,2013-03-05 14:41:00,
2013-03-05 09:46:00,44.6,22.4,30.00,SE,131,3.0,3.0,41,0.00,,---,0.00,VWS V14.01,2013-03-05 14:46:00,
2013-03-05 09:50:00,47.8,23.4,29.98,SSW,205,4.0,5.0,38,0.00,,---,0.00,VWS V14.01,2013-03-05 14:50:00,
2013-03-05 09:51:00,44.5,23.4,29.99,SE,132,2.0,2.0,43,0.00,,---,0.00,VWS V14.01,2013-03-05 14:51:00,
2013-03-05 09:56:00,44.5,22.9,30.00,SSE,153,1.0,3.0,42,0.00,,---,0.00,VWS V14.01,2013-03-05 14:56:00,
2013-03-05 10:00:00,47.4,23.1,29.98,ENE,76,5.0,6.0,38,0.00,,---,0.00,VWS V14.01,2013-03-05 15:00:00,
2013-03-05 10:01:00,44.7,23.6,30.00,SSE,148,0.0,3.0,43,0.00,,---,0.00,VWS V14.01,2013-03-05 15:01:00,
2013-03-05 10:06:00,45.0,22.7,30.00,SSE,148,0.0,4.0,41,0.00,,---,0.00,VWS V14.01,2013-03-05 15:06:00,
2013-03-05 10:10:00,47.5,23.2,29.97,East,87,3.0,6.0,38,0.00,,---,0.00,VWS V14.01,2013-03-05 15:10:00,
2013-03-05 10:12:00,45.3,23.0,30.00,SSE,164,3.0,3.0,41,0.00,,---,0.00,VWS V14.01,2013-03-05 15:12:00,
2013-03-05 10:17:00,45.4,23.1,30.00,SE,131,0.0,4.0,41,0.00,,---,0.00,VWS V14.01,2013-03-05 15:17:00,
2013-03-05 10:20:00,47.6,24.5,29.97,ESE,106,2.0,7.0,40,0.00,,---,0.00,VWS V14.01,2013-03-05 15:20:00,
2013-03-05 10:22:00,45.6,22.7,30.00,SSE,156,2.0,5.0,40,0.00,,---,0.00,VWS V14.01,2013-03-05 15:22:00,
2013-03-05 10:27:00,46.1,24.9,29.99,SSE,148,6.0,6.0,43,0.00,,---,0.00,VWS V14.01,2013-03-05 15:27:00,
2013-03-05 10:30:00,47.6,23.3,29.96,SE,127,3.0,6.0,38,0.00,,---,0.00,VWS V14.01,2013-03-05 15:30:00,
2013-03-05 10:32:00,46.8,23.2,29.99,SSW,200,1.0,4.0,39,0.00,,---,0.00,VWS V14.01,2013-03-05 15:32:00,
2013-03-05 10:37:00,47.3,22.4,29.99,SSE,148,1.0,5.0,37,0.00,,---,0.00,VWS V14.01,2013-03-05 15:37:00,
2013-03-05 10:40:00,47.6,24.5,29.96,East,92,8.0,8.0,40,0.00,,---,0.00,VWS V14.01,2013-03-05 15:40:00,
2013-03-05 10:42:00,47.5,23.2,29.98,SE,140,3.0,5.0,38,0.00,,---,0.00,VWS V14.01,2013-03-05 15:42:00,
2013-03-05 10:47:00,47.7,23.4,29.98,South,175,1.0,5.0,38,0.00,,---,0.00,VWS V14.01,2013-03-05 15:47:00,
2013-03-05 10:50:00,47.1,27.9,29.96,NE,53,2.0,8.0,47,0.00,,---,0.00,VWS V14.01,2013-03-05 15:50:00,
2013-03-05 10:52:00,47.7,24.6,29.98,East,98,5.0,5.0,40,0.00,,---,0.00,VWS V14.01,2013-03-05 15:52:00,
2013-03-05 10:57:00,47.5,23.8,29.98,East,98,2.0,6.0,39,0.00,,---,0.00,VWS V14.01,2013-03-05 15:57:00,
2013-03-05 11:00:00,46.6,26.4,29.96,ESE,110,3.0,6.0,45,0.00,,---,0.00,VWS V14.01,2013-03-05 16:00:00,
2013-03-05 11:02:00,47.3,23.0,29.97,ENE,70,2.0,5.0,38,0.00,,---,0.00,VWS V14.01,2013-03-05 16:02:00,
2013-03-05 11:07:00,47.5,23.2,29.97,ESE,102,3.0,6.0,38,0.00,,---,0.00,VWS V14.01,2013-03-05 16:07:00,
2013-03-05 11:10:00,46.5,28.9,29.95,SE,144,1.0,5.0,50,0.00,,---,0.00,VWS V14.01,2013-03-05 16:10:00,
2013-03-05 11:12:00,47.5,24.4,29.97,East,92,3.0,4.0,40,0.00,,---,0.00,VWS V14.01,2013-03-05 16:12:00,
2013-03-05 11:17:00,47.5,24.4,29.97,East,86,6.0,7.0,40,0.00,,---,0.00,VWS V14.01,2013-03-05 16:17:00,
2013-03-05 11:20:00,46.5,27.9,29.95,SSE,147,1.0,4.0,48,0.00,,---,0.00,VWS V14.01,2013-03-05 16:20:00,
2013-03-05 11:22:00,47.6,23.3,29.97,East,88,2.0,4.0,38,0.00,,---,0.00,VWS V14.01,2013-03-05 16:22:00,
2013-03-05 11:28:00,47.6,23.9,29.96,ESE,111,4.0,6.0,39,0.00,,---,0.00,VWS V14.01,2013-03-05 16:28:00,
2013-03-05 11:30:00,46.6,28.5,29.94,ESE,108,7.0,10.0,49,0.00,,---,0.00,VWS V14.01,2013-03-05 16:30:00,
2013-03-05 11:33:00,47.7,24.0,29.96,East,82,5.0,5.0,39,0.00,,---,0.00,VWS V14.01,2013-03-05 16:33:00,
2013-03-05 11:38:00,47.7,24.0,29.96,SE,125,4.0,5.0,39,0.00,,---,0.00,VWS V14.01,2013-03-05 16:38:00,
2013-03-05 11:40:00,46.6,28.0,29.93,ESE,116,4.0,9.0,48,0.00,,---,0.00,VWS V14.01,2013-03-05 16:40:00,
2013-03-05 11:43:00,47.4,26.0,29.96,East,101,3.0,8.0,43,0.00,,---,0.00,VWS V14.01,2013-03-05 16:43:00,
2013-03-05 11:48:00,47.1,27.9,29.96,ENE,78,4.0,8.0,47,0.00,,---,0.00,VWS V14.01,2013-03-05 16:48:00,
2013-03-05 11:50:00,47.0,28.3,29.93,East,97,3.0,6.0,48,0.00,,---,0.00,VWS V14.01,2013-03-05 16:50:00,
2013-03-05 11:53:00,47.0,26.2,29.96,East,92,2.0,6.0,44,0.00,,---,0.00,VWS V14.01,2013-03-05 16:53:00,
2013-03-05 11:58:00,46.6,25.3,29.96,East,100,2.0,6.0,43,0.00,,---,0.00,VWS V14.01,2013-03-05 16:58:00,
2013-03-05 12:00:00,47.6,28.9,29.92,SE,128,6.0,8.0,48,0.00,,---,0.00,VWS V14.01,2013-03-05 17:00:00,
2013-03-05 12:03:00,46.5,26.9,29.96,East,99,2.0,4.0,46,0.00,,---,0.00,VWS V14.01,2013-03-05 17:03:00,
2013-03-05 12:08:00,46.5,29.8,29.95,ESE,123,3.0,5.0,52,0.00,,---,0.00,VWS V14.01,2013-03-05 17:08:00,
2013-03-05 12:10:00,48.1,29.9,29.90,SE,133,6.0,9.0,49,0.00,,---,0.00,VWS V14.01,2013-03-05 17:10:00,
2013-03-05 12:13:00,46.5,28.4,29.95,SSE,158,2.0,4.0,49,0.00,,---,0.00,VWS V14.01,2013-03-05 17:13:00,
2013-03-05 12:18:00,46.5,27.9,29.95,SE,142,4.0,4.0,48,0.00,,---,0.00,VWS V14.01,2013-03-05 17:18:00,
2013-03-05 12:20:00,48.5,29.7,29.90,SSE,167,4.0,10.0,48,0.00,,---,0.00,VWS V14.01,2013-03-05 17:20:00,
2013-03-05 12:23:00,46.5,29.8,29.94,SSE,150,3.0,4.0,52,0.00,,---,0.00,VWS V14.01,2013-03-05 17:23:00,
2013-03-05 12:29:00,46.6,28.0,29.94,ESE,102,3.0,6.0,48,0.00,,---,0.00,VWS V14.01,2013-03-05 17:29:00,
2013-03-05 12:30:00,49.1,29.8,29.89,SE,139,8.0,8.0,47,0.00,,---,0.00,VWS V14.01,2013-03-05 17:30:00,
2013-03-05 12:34:00,46.5,28.4,29.93,SE,135,5.0,9.0,49,0.00,,---,0.00,VWS V14.01,2013-03-05 17:34:00,
2013-03-05 12:39:00,46.6,28.5,29.93,SE,130,5.0,9.0,49,0.00,,---,0.00,VWS V14.01,2013-03-05 17:39:00,
2013-03-05 12:40:00,49.2,31.9,29.89,ESE,102,4.0,8.0,51,0.00,,---,0.00,VWS V14.01,2013-03-05 17:40:00,
2013-03-05 12:44:00,46.7,28.1,29.93,SSE,157,4.0,5.0,48,0.00,,---,0.00,VWS V14.01,2013-03-05 17:44:00,
2013-03-05 12:49:00,47.0,28.9,29.93,East,95,6.0,6.0,49,0.00,,---,0.00,VWS V14.01,2013-03-05 17:49:00,
2013-03-05 12:50:00,48.8,31.5,29.88,SE,128,3.0,5.0,51,0.00,,---,0.00,VWS V14.01,2013-03-05 17:50:00,
2013-03-05 12:54:00,47.1,29.4,29.92,ESE,110,2.0,7.0,50,0.00,,---,0.00,VWS V14.01,2013-03-05 17:54:00,
2013-03-05 12:59:00,47.6,28.9,29.92,ESE,121,8.0,8.0,48,0.00,,---,0.00,VWS V14.01,2013-03-05 17:59:00,
2013-03-05 13:00:00,48.5,32.2,29.87,SSE,157,4.0,7.0,53,0.00,,---,0.00,VWS V14.01,2013-03-05 18:00:00,
2013-03-05 13:04:00,47.7,29.0,29.91,SE,131,5.0,9.0,48,0.00,,---,0.00,VWS V14.01,2013-03-05 18:04:00,
2013-03-05 13:09:00,48.1,29.9,29.90,SE,133,6.0,9.0,49,0.00,,---,0.00,VWS V14.01,2013-03-05 18:09:00,
2013-03-05 13:10:00,48.7,31.4,29.87,ESE,118,1.0,5.0,51,0.00,,---,0.00,VWS V14.01,2013-03-05 18:10:00,
2013-03-05 13:15:00,48.3,29.5,29.90,ESE,117,7.0,10.0,48,0.00,,---,0.00,VWS V14.01,2013-03-05 18:15:00,
2013-03-05 13:20:00,48.5,29.7,29.90,ESE,120,8.0,8.0,48,0.00,,---,0.00,VWS V14.01,2013-03-05 18:20:00,
2013-03-05 13:25:00,49.0,29.7,29.89,SE,134,3.0,8.0,47,0.00,,---,0.00,VWS V14.01,2013-03-05 18:25:00,
2013-03-05 13:30:00,49.0,29.7,29.89,South,169,8.0,8.0,47,0.00,,---,0.00,VWS V14.01,2013-03-05 18:30:00,
2013-03-05 13:35:00,48.9,30.6,29.89,ESE,107,3.0,8.0,49,0.00,,---,0.00,VWS V14.01,2013-03-05 18:35:00,
2013-03-05 13:40:00,49.2,32.3,29.89,ESE,113,5.0,5.0,52,0.00,,---,0.00,VWS V14.01,2013-03-05 18:40:00,
2013-03-05 13:46:00,48.9,32.1,29.89,SSE,164,1.0,5.0,52,0.00,,---,0.00,VWS V14.01,2013-03-05 18:46:00,
2013-03-05 13:50:00,48.3,31.0,29.86,SSE,157,2.0,3.0,51,0.00,,---,0.00,VWS V14.01,2013-03-05 18:50:00,
2013-03-05 13:51:00,48.8,31.0,29.88,ESE,120,3.0,7.0,50,0.00,,---,0.00,VWS V14.01,2013-03-05 18:51:00,
2013-03-05 13:56:00,48.5,31.7,29.87,SE,143,3.0,7.0,52,0.00,,---,0.00,VWS V14.01,2013-03-05 18:56:00,
2013-03-05 14:00:00,48.0,33.1,29.88,South,189,4.0,6.0,56,0.00,,---,0.00,VWS V14.01,2013-03-05 19:00:00,
2013-03-05 14:01:00,48.5,31.2,29.87,South,182,3.0,5.0,51,0.00,,---,0.00,VWS V14.01,2013-03-05 19:01:00,
2013-03-05 14:06:00,48.6,31.3,29.87,ENE,67,3.0,5.0,51,0.00,,---,0.00,VWS V14.01,2013-03-05 19:06:00,
2013-03-05 14:10:00,46.6,36.6,29.87,South,171,3.0,5.0,68,0.01,,---,0.01,VWS V14.01,2013-03-05 19:10:00,
2013-03-05 14:11:00,48.8,31.5,29.87,ESE,119,1.0,2.0,51,0.00,,---,0.00,VWS V14.01,2013-03-05 19:11:00,
2013-03-05 14:16:00,48.9,31.1,29.87,SSW,193,3.0,4.0,50,0.00,,---,0.00,VWS V14.01,2013-03-05 19:16:00,
2013-03-05 14:20:00,45.1,37.0,29.86,South,175,2.0,5.0,73,0.03,,---,0.03,VWS V14.01,2013-03-05 19:20:00,
2013-03-05 14:21:00,48.8,31.0,29.86,East,101,2.0,3.0,50,0.00,,---,0.00,VWS V14.01,2013-03-05 19:21:00,
2013-03-05 14:26:00,48.7,30.9,29.86,ESE,109,4.0,4.0,50,0.00,,---,0.00,VWS V14.01,2013-03-05 19:26:00,
2013-03-05 14:30:00,44.0,37.9,29.85,SSE,150,1.0,3.0,79,0.05,,---,0.05,VWS V14.01,2013-03-05 19:30:00,
2013-03-05 14:31:00,48.6,30.8,29.85,ESE,114,3.0,6.0,50,0.00,,---,0.00,VWS V14.01,2013-03-05 19:31:00,
2013-03-05 14:36:00,48.4,31.1,29.85,ESE,107,4.0,6.0,51,0.00,,---,0.00,VWS V14.01,2013-03-05 19:36:00,
2013-03-05 14:40:00,42.9,38.1,29.87,SSW,199,2.0,5.0,83,0.06,,---,0.06,VWS V14.01,2013-03-05 19:40:00,
2013-03-05 14:42:00,48.3,31.0,29.85,SSE,164,1.0,2.0,51,0.00,,---,0.00,VWS V14.01,2013-03-05 19:42:00,
2013-03-05 14:47:00,48.3,31.0,29.86,SSE,162,0.0,2.0,51,0.00,,---,0.00,VWS V14.01,2013-03-05 19:47:00,
2013-03-05 14:50:00,42.4,38.5,29.85,SE,136,0.0,5.0,86,0.06,,---,0.06,VWS V14.01,2013-03-05 19:50:00,
2013-03-05 14:52:00,48.3,30.5,29.86,South,191,2.0,4.0,50,0.00,,---,0.00,VWS V14.01,2013-03-05 19:52:00,
2013-03-05 14:57:00,48.1,31.8,29.87,SSW,205,6.0,6.0,53,0.00,,---,0.00,VWS V14.01,2013-03-05 19:57:00,
2013-03-05 15:00:00,42.3,38.4,29.85,SSW,202,2.0,3.0,86,0.08,,---,0.08,VWS V14.01,2013-03-05 20:00:00,
2013-03-05 15:02:00,47.7,33.2,29.88,SSW,197,3.0,5.0,57,0.00,,---,0.00,VWS V14.01,2013-03-05 20:02:00,
2013-03-05 15:07:00,47.1,36.3,29.87,South,190,4.0,5.0,66,0.01,,---,0.01,VWS V14.01,2013-03-05 20:07:00,
2013-03-05 15:10:00,41.7,38.1,29.86,SSW,200,4.0,6.0,87,0.08,,---,0.08,VWS V14.01,2013-03-05 20:10:00,
2013-03-05 15:12:00,46.2,37.0,29.87,South,186,2.0,5.0,70,0.02,,---,0.02,VWS V14.01,2013-03-05 20:12:00,
2013-03-05 15:17:00,45.4,37.3,29.86,South,191,2.0,5.0,73,0.03,,---,0.03,VWS V14.01,2013-03-05 20:17:00,
2013-03-05 15:20:00,41.2,38.2,29.87,SW,218,0.0,6.0,89,0.09,,---,0.10,VWS V14.01,2013-03-05 20:20:00,
2013-03-05 15:22:00,44.7,37.3,29.85,SSE,161,1.0,3.0,75,0.04,,---,0.04,VWS V14.01,2013-03-05 20:22:00,
2013-03-05 15:27:00,44.2,38.1,29.85,SSE,153,2.0,3.0,79,0.05,,---,0.05,VWS V14.01,2013-03-05 20:27:00,
2013-03-05 15:30:00,41.0,38.3,29.84,SE,130,2.0,6.0,90,0.09,,---,0.12,VWS V14.01,2013-03-05 20:30:00,
2013-03-05 15:32:00,43.8,38.4,29.86,South,178,2.0,2.0,81,0.06,,---,0.06,VWS V14.01,2013-03-05 20:32:00,
2013-03-05 15:37:00,43.2,37.8,29.86,SSW,205,2.0,5.0,81,0.06,,---,0.06,VWS V14.01,2013-03-05 20:37:00,
2013-03-05 15:40:00,40.9,38.2,29.84,ESE,116,0.0,2.0,90,0.09,,---,0.14,VWS V14.01,2013-03-05 20:40:00,
2013-03-05 15:42:00,42.7,38.2,29.86,SSW,196,2.0,5.0,84,0.06,,---,0.06,VWS V14.01,2013-03-05 20:42:00,
2013-03-05 15:48:00,42.5,38.3,29.85,South,184,1.0,5.0,85,0.06,,---,0.06,VWS V14.01,2013-03-05 20:48:00,
2013-03-05 15:50:00,41.2,38.5,29.83,ESE,116,1.0,1.0,90,0.10,,---,0.16,VWS V14.01,2013-03-05 20:50:00,
2013-03-05 15:53:00,42.3,37.8,29.85,SSE,167,1.0,3.0,84,0.07,,---,0.07,VWS V14.01,2013-03-05 20:53:00,
2013-03-05 15:58:00,42.3,38.4,29.85,SSW,198,2.0,3.0,86,0.08,,---,0.08,VWS V14.01,2013-03-05 20:58:00,
2013-03-05 16:00:00,41.3,38.6,29.82,East,86,2.0,2.0,90,0.11,,---,0.17,VWS V14.01,2013-03-05 21:00:00,
2013-03-05 16:03:00,42.1,38.5,29.85,SW,220,2.0,3.0,87,0.08,,---,0.08,VWS V14.01,2013-03-05 21:03:00,
2013-03-05 16:08:00,41.8,38.2,29.86,SW,223,3.0,3.0,87,0.08,,---,0.08,VWS V14.01,2013-03-05 21:08:00,
2013-03-05 16:10:00,41.1,38.4,29.81,NE,42,2.0,4.0,90,0.09,,---,0.17,VWS V14.01,2013-03-05 21:10:00,
2013-03-05 16:13:00,41.4,38.1,29.86,South,172,4.0,6.0,88,0.08,,---,0.09,VWS V14.01,2013-03-05 21:13:00,
2013-03-05 16:18:00,41.2,38.2,29.87,SSW,202,3.0,6.0,89,0.09,,---,0.10,VWS V14.01,2013-03-05 21:18:00,
2013-03-05 16:20:00,40.9,38.2,29.81,NE,46,0.0,2.0,90,0.09,,---,0.17,VWS V14.01,2013-03-05 21:20:00,
2013-03-05 16:23:00,41.1,38.1,29.87,SW,214,2.0,5.0,89,0.08,,---,0.11,VWS V14.01,2013-03-05 21:23:00,
2013-03-05 16:28:00,41.0,38.3,29.84,SE,128,3.0,6.0,90,0.09,,---,0.12,VWS V14.01,2013-03-05 21:28:00,
2013-03-05 16:30:00,41.0,38.6,29.80,ENE,59,0.0,2.0,91,0.07,,---,0.17,VWS V14.01,2013-03-05 21:30:00,
2013-03-05 16:33:00,40.9,38.2,29.84,ESE,117,1.0,2.0,90,0.08,,---,0.13,VWS V14.01,2013-03-05 21:33:00,
2013-03-05 16:38:00,40.9,38.2,29.84,ESE,116,0.0,2.0,90,0.09,,---,0.14,VWS V14.01,2013-03-05 21:38:00,
2013-03-05 16:40:00,41.0,38.9,29.79,SE,142,0.0,2.0,92,0.05,,---,0.17,VWS V14.01,2013-03-05 21:40:00,
2013-03-05 16:43:00,41.0,38.3,29.83,ESE,116,0.0,0.0,90,0.09,,---,0.15,VWS V14.01,2013-03-05 21:43:00,
2013-03-05 16:49:00,41.2,38.8,29.83,ESE,116,1.0,1.0,91,0.10,,---,0.16,VWS V14.01,2013-03-05 21:49:00,
2013-03-05 16:50:00,40.9,38.5,29.79,ESE,119,0.0,2.0,91,0.03,,---,0.17,VWS V14.01,2013-03-05 21:50:00,
2013-03-05 16:54:00,41.2,38.5,29.83,ESE,116,0.0,1.0,90,0.11,,---,0.17,VWS V14.01,2013-03-05 21:54:00,
2013-03-05 16:59:00,41.3,38.6,29.82,East,87,2.0,2.0,90,0.11,,---,0.17,VWS V14.01,2013-03-05 21:59:00,
2013-03-05 17:00:00,40.8,38.7,29.78,ESE,119,0.0,2.0,92,0.01,,---,0.17,VWS V14.01,2013-03-05 22:00:00,
2013-03-05 17:04:00,41.2,38.5,29.81,ENE,65,3.0,4.0,90,0.09,,---,0.17,VWS V14.01,2013-03-05 22:04:00,
2013-03-05 17:09:00,41.1,38.4,29.81,NE,42,2.0,4.0,90,0.09,,---,0.17,VWS V14.01,2013-03-05 22:09:00,
2013-03-05 17:10:00,40.7,38.8,29.77,East,90,1.0,3.0,93,0.00,,---,0.17,VWS V14.01,2013-03-05 22:10:00,
2013-03-05 17:14:00,41.0,38.3,29.81,NE,46,0.0,2.0,90,0.09,,---,0.17,VWS V14.01,2013-03-05 22:14:00,
2013-03-05 17:19:00,40.9,38.2,29.81,NE,46,0.0,2.0,90,0.09,,---,0.17,VWS V14.01,2013-03-05 22:19:00,
2013-03-05 17:20:00,40.6,39.0,29.76,ESE,111,1.0,2.0,94,0.00,,---,0.17,VWS V14.01,2013-03-05 22:20:00,
2013-03-05 17:24:00,41.0,38.6,29.80,NE,46,0.0,2.0,91,0.07,,---,0.17,VWS V14.01,2013-03-05 22:24:00,
2013-03-05 17:29:00,41.0,38.6,29.80,ENE,59,0.0,2.0,91,0.07,,---,0.17,VWS V14.01,2013-03-05 22:29:00,
2013-03-05 17:30:00,40.7,39.1,29.76,ESE,110,0.0,2.0,94,0.00,,---,0.17,VWS V14.01,2013-03-05 22:30:00,
2013-03-05 17:34:00,41.0,38.9,29.80,SE,142,0.0,2.0,92,0.05,,---,0.17,VWS V14.01,2013-03-05 22:34:00,
2013-03-05 17:39:00,41.0,38.9,29.79,SE,142,0.0,2.0,92,0.05,,---,0.17,VWS V14.01,2013-03-05 22:39:00,
2013-03-05 17:40:00,40.8,39.2,29.75,East,88,2.0,2.0,94,0.00,,---,0.17,VWS V14.01,2013-03-05 22:40:00,
2013-03-05 17:44:00,41.0,38.6,29.79,ESE,119,2.0,2.0,91,0.03,,---,0.17,VWS V14.01,2013-03-05 22:44:00,
2013-03-05 17:50:00,40.9,38.5,29.79,ESE,119,0.0,0.0,91,0.01,,---,0.17,VWS V14.01,2013-03-05 22:50:00,
2013-03-05 17:55:00,40.8,38.7,29.79,ESE,119,1.0,2.0,92,0.01,,---,0.17,VWS V14.01,2013-03-05 22:55:00,
2013-03-05 18:00:00,40.8,38.7,29.78,ESE,119,0.0,0.0,92,0.00,,---,0.17,VWS V14.01,2013-03-05 23:00:00,
2013-03-05 18:05:00,40.7,38.6,29.78,ESE,110,2.0,3.0,92,0.00,,---,0.17,VWS V14.01,2013-03-05 23:05:00,
2013-03-05 18:10:00,40.7,38.8,29.77,East,92,1.0,2.0,93,0.00,,---,0.17,VWS V14.01,2013-03-05 23:10:00,
2013-03-05 18:15:00,40.6,39.0,29.77,ESE,111,0.0,2.0,94,0.00,,---,0.17,VWS V14.01,2013-03-05 23:15:00,
2013-03-05 18:20:00,40.7,39.1,29.76,ESE,111,1.0,1.0,94,0.00,,---,0.17,VWS V14.01,2013-03-05 23:20:00,
2013-03-05 18:25:00,40.7,39.1,29.76,ESE,110,0.0,2.0,94,0.00,,---,0.17,VWS V14.01,2013-03-05 23:25:00,
2013-03-05 18:30:00,40.7,39.1,29.76,ESE,110,0.0,0.0,94,0.00,,---,0.17,VWS V14.01,2013-03-05 23:30:00,
2013-03-05 18:35:00,40.8,39.2,29.75,ESE,102,0.0,2.0,94,0.00,,---,0.17,VWS V14.01,2013-03-05 23:35:00,
2013-03-05 18:40:00,40.4,39.1,29.75,West,259,3.0,9.0,95,0.13,,---,0.30,VWS V14.01,2013-03-05 23:40:00,
2013-03-05 18:41:00,40.8,39.2,29.75,East,88,1.0,2.0,94,0.00,,---,0.17,VWS V14.01,2013-03-05 23:41:00,
2013-03-05 18:46:00,40.8,39.2,29.74,NNE,32,1.0,2.0,94,0.01,,---,0.18,VWS V14.01,2013-03-05 23:46:00,
2013-03-05 18:50:00,40.4,39.1,29.74,WNW,282,2.0,5.0,95,0.18,,---,0.35,VWS V14.01,2013-03-05 23:50:00,
2013-03-05 18:51:00,40.9,39.3,29.73,North,5,2.0,2.0,94,0.01,,---,0.18,VWS V14.01,2013-03-05 23:51:00,
2013-03-05 18:56:00,41.0,39.4,29.73,North,5,0.0,2.0,94,0.01,,---,0.18,VWS V14.01,2013-03-05 23:56:00,
2013-03-05 19:00:00,40.3,39.0,29.74,WNW,284,2.0,5.0,95,0.24,,---,0.42,VWS V14.01,2013-03-06 00:00:00,
2013-03-05 19:01:00,41.0,39.1,29.73,North,5,1.0,3.0,93,0.01,,---,0.18,VWS V14.01,2013-03-06 00:01:00,
2013-03-05 19:06:00,41.0,39.1,29.73,North,360,1.0,3.0,93,0.02,,---,0.19,VWS V14.01,2013-03-06 00:06:00,
2013-03-05 19:10:00,40.3,39.0,29.74,WNW,294,4.0,5.0,95,0.31,,---,0.49,VWS V14.01,2013-03-06 00:10:00,
2013-03-05 19:11:00,41.0,39.4,29.73,WNW,299,1.0,2.0,94,0.03,,---,0.20,VWS V14.01,2013-03-06 00:11:00,
2013-03-05 19:16:00,40.7,39.1,29.73,West,274,2.0,4.0,94,0.05,,---,0.22,VWS V14.01,2013-03-06 00:16:00,
2013-03-05 19:20:00,40.3,39.0,29.72,NNW,332,2.0,4.0,95,0.36,,---,0.56,VWS V14.01,2013-03-06 00:20:00,
2013-03-05 19:21:00,40.7,39.1,29.73,West,271,5.0,5.0,94,0.05,,---,0.22,VWS V14.01,2013-03-06 00:21:00,
2013-03-05 19:26:00,40.6,39.0,29.73,West,275,5.0,5.0,94,0.08,,---,0.25,VWS V14.01,2013-03-06 00:26:00,
2013-03-05 19:30:00,40.5,39.2,29.71,NNW,346,1.0,4.0,95,0.42,,---,0.64,VWS V14.01,2013-03-06 00:30:00,
2013-03-05 19:31:00,40.5,38.9,29.74,West,259,9.0,9.0,94,0.10,,---,0.27,VWS V14.01,2013-03-06 00:31:00,
2013-03-05 19:36:00,40.4,39.1,29.75,West,259,4.0,9.0,95,0.12,,---,0.29,VWS V14.01,2013-03-06 00:36:00,
2013-03-05 19:40:00,40.5,39.2,29.69,East,97,1.0,4.0,95,0.41,,---,0.67,VWS V14.01,2013-03-06 00:40:00,
2013-03-05 19:41:00,40.4,39.1,29.75,West,262,2.0,4.0,95,0.15,,---,0.32,VWS V14.01,2013-03-06 00:41:00,
2013-03-05 19:46:00,40.4,39.1,29.74,WNW,284,4.0,5.0,95,0.17,,---,0.34,VWS V14.01,2013-03-06 00:46:00,
2013-03-05 19:50:00,40.5,39.2,29.68,ENE,78,3.0,6.0,95,0.39,,---,0.69,VWS V14.01,2013-03-06 00:50:00,
2013-03-05 19:52:00,40.3,39.0,29.74,West,266,1.0,4.0,95,0.18,,---,0.36,VWS V14.01,2013-03-06 00:52:00,
2013-03-05 19:57:00,40.4,39.1,29.74,West,277,3.0,5.0,95,0.22,,---,0.40,VWS V14.01,2013-03-06 00:57:00,
2013-03-05 20:00:00,40.6,39.3,29.68,SSE,148,1.0,5.0,95,0.35,,---,0.70,VWS V14.01,2013-03-06 01:00:00,
2013-03-05 20:02:00,40.4,39.1,29.73,WNW,298,2.0,3.0,95,0.26,,---,0.44,VWS V14.01,2013-03-06 01:02:00,
2013-03-05 20:07:00,40.3,39.0,29.74,West,279,2.0,3.0,95,0.29,,---,0.47,VWS V14.01,2013-03-06 01:07:00,
2013-03-05 20:10:00,40.6,39.3,29.67,SE,126,2.0,3.0,95,0.29,,---,0.71,VWS V14.01,2013-03-06 01:10:00,
2013-03-05 20:12:00,40.3,39.0,29.73,WNW,296,2.0,4.0,95,0.31,,---,0.51,VWS V14.01,2013-03-06 01:12:00,
2013-03-05 20:17:00,40.3,39.0,29.73,NW,304,1.0,4.0,95,0.34,,---,0.54,VWS V14.01,2013-03-06 01:17:00,
2013-03-05 20:20:00,40.6,39.3,29.66,SE,140,3.0,5.0,95,0.23,,---,0.72,VWS V14.01,2013-03-06 01:20:00,
2013-03-05 20:22:00,40.4,39.1,29.71,NNW,347,2.0,4.0,95,0.36,,---,0.58,VWS V14.01,2013-03-06 01:22:00,
2013-03-05 20:27:00,40.5,39.2,29.71,NNW,345,0.0,4.0,95,0.40,,---,0.62,VWS V14.01,2013-03-06 01:27:00,
2013-03-05 20:32:00,40.5,39.2,29.70,East,80,2.0,3.0,95,0.39,,---,0.65,VWS V14.01,2013-03-06 01:32:00,
2013-03-05 20:37:00,40.5,39.2,29.69,ENE,65,2.0,4.0,95,0.40,,---,0.66,VWS V14.01,2013-03-06 01:37:00,
2013-03-05 20:40:00,40.8,39.8,29.66,ESE,106,2.0,3.0,96,0.08,,---,0.72,VWS V14.01,2013-03-06 01:40:00,
2013-03-05 20:42:00,40.5,39.2,29.68,ENE,78,1.0,3.0,95,0.38,,---,0.68,VWS V14.01,2013-03-06 01:42:00,
2013-03-05 20:47:00,40.5,39.2,29.68,East,80,6.0,6.0,95,0.39,,---,0.69,VWS V14.01,2013-03-06 01:47:00,
2013-03-05 20:50:00,40.7,39.7,29.63,East,101,3.0,7.0,96,0.07,,---,0.74,VWS V14.01,2013-03-06 01:50:00,
2013-03-05 20:53:00,40.6,39.3,29.68,East,79,3.0,5.0,95,0.34,,---,0.69,VWS V14.01,2013-03-06 01:53:00,
2013-03-05 20:58:00,40.6,39.3,29.68,SSE,152,1.0,5.0,95,0.35,,---,0.70,VWS V14.01,2013-03-06 01:58:00,
2013-03-05 21:00:00,40.8,39.8,29.65,West,269,3.0,5.0,96,0.05,,---,0.74,VWS V14.01,2013-03-06 02:00:00,
2013-03-05 21:03:00,40.6,39.3,29.67,SSE,148,1.0,2.0,95,0.28,,---,0.70,VWS V14.01,2013-03-06 02:03:00,
2013-03-05 21:08:00,40.6,39.3,29.67,ESE,115,3.0,3.0,95,0.29,,---,0.71,VWS V14.01,2013-03-06 02:08:00,
2013-03-05 21:10:00,40.9,39.8,29.65,WSW,258,3.0,4.0,96,0.04,,---,0.74,VWS V14.01,2013-03-06 02:10:00,
2013-03-05 21:13:00,40.7,39.4,29.66,ESE,114,4.0,5.0,95,0.22,,---,0.71,VWS V14.01,2013-03-06 02:13:00,
2013-03-05 21:18:00,40.6,39.3,29.66,SE,144,1.0,5.0,95,0.23,,---,0.72,VWS V14.01,2013-03-06 02:18:00,
2013-03-05 21:20:00,41.0,39.7,29.65,NNW,332,2.0,6.0,95,0.03,,---,0.74,VWS V14.01,2013-03-06 02:20:00,
2013-03-05 21:23:00,40.7,39.7,29.66,ESE,111,0.0,4.0,96,0.16,,---,0.72,VWS V14.01,2013-03-06 02:23:00,
2013-03-05 21:28:00,40.7,39.7,29.66,East,95,2.0,4.0,96,0.16,,---,0.72,VWS V14.01,2013-03-06 02:28:00,
2013-03-05 21:30:00,41.0,39.7,29.64,WSW,254,1.0,4.0,95,0.02,,---,0.74,VWS V14.01,2013-03-06 02:30:00,
2013-03-05 21:33:00,40.7,39.7,29.66,ESE,106,1.0,3.0,96,0.08,,---,0.72,VWS V14.01,2013-03-06 02:33:00,
2013-03-05 21:38:00,40.8,39.8,29.66,ESE,106,0.0,3.0,96,0.08,,---,0.72,VWS V14.01,2013-03-06 02:38:00,
2013-03-05 21:40:00,41.0,39.7,29.64,SW,221,0.0,3.0,95,0.02,,---,0.74,VWS V14.01,2013-03-06 02:40:00,
2013-03-05 21:43:00,40.8,39.5,29.65,East,89,5.0,5.0,95,0.06,,---,0.73,VWS V14.01,2013-03-06 02:43:00,
2013-03-05 21:48:00,40.7,39.7,29.63,East,92,7.0,7.0,96,0.06,,---,0.73,VWS V14.01,2013-03-06 02:48:00,
2013-03-05 21:50:00,41.1,39.8,29.63,WSW,257,1.0,3.0,95,0.02,,---,0.74,VWS V14.01,2013-03-06 02:50:00,
2013-03-05 21:53:00,40.8,39.8,29.64,West,273,5.0,5.0,96,0.05,,---,0.74,VWS V14.01,2013-03-06 02:53:00,
2013-03-05 21:58:00,40.8,39.8,29.65,West,273,1.0,5.0,96,0.05,,---,0.74,VWS V14.01,2013-03-06 02:58:00,
2013-03-05 22:00:00,41.1,39.8,29.63,West,263,2.0,2.0,95,0.00,,---,0.74,VWS V14.01,2013-03-06 03:00:00,
2013-03-05 22:04:00,40.8,39.8,29.64,West,269,0.0,3.0,96,0.04,,---,0.74,VWS V14.01,2013-03-06 03:04:00,
2013-03-05 22:09:00,40.9,39.8,29.65,West,261,3.0,4.0,96,0.04,,---,0.74,VWS V14.01,2013-03-06 03:09:00,
2013-03-05 22:10:00,41.0,39.7,29.63,WSW,246,2.0,5.0,95,0.01,,---,0.75,VWS V14.01,2013-03-06 03:10:00,
2013-03-05 22:14:00,40.9,39.8,29.64,West,259,0.0,3.0,96,0.03,,---,0.74,VWS V14.01,2013-03-06 03:14:00,
2013-03-05 22:19:00,41.0,39.7,29.65,NNW,340,1.0,6.0,95,0.03,,---,0.74,VWS V14.01,2013-03-06 03:19:00,
2013-03-05 22:20:00,40.9,39.6,29.63,WNW,302,0.0,3.0,95,0.01,,---,0.75,VWS V14.01,2013-03-06 03:20:00,
2013-03-05 22:24:00,41.0,39.7,29.64,WSW,254,3.0,4.0,95,0.02,,---,0.74,VWS V14.01,2013-03-06 03:24:00,
2013-03-05 22:29:00,41.0,39.7,29.64,WSW,254,1.0,4.0,95,0.02,,---,0.74,VWS V14.01,2013-03-06 03:29:00,
2013-03-05 22:30:00,41.0,39.7,29.63,WSW,257,3.0,3.0,95,0.01,,---,0.75,VWS V14.01,2013-03-06 03:30:00,
2013-03-05 22:34:00,41.0,39.7,29.64,West,261,3.0,3.0,95,0.02,,---,0.74,VWS V14.01,2013-03-06 03:34:00,
2013-03-05 22:39:00,41.0,39.7,29.64,SW,221,0.0,3.0,95,0.02,,---,0.74,VWS V14.01,2013-03-06 03:39:00,
2013-03-05 22:40:00,41.0,39.7,29.62,WSW,257,0.0,3.0,95,0.01,,---,0.75,VWS V14.01,2013-03-06 03:40:00,
2013-03-05 22:44:00,41.0,39.7,29.63,SW,221,0.0,2.0,95,0.02,,---,0.74,VWS V14.01,2013-03-06 03:44:00,
2013-03-05 22:49:00,41.0,39.7,29.63,WSW,257,2.0,2.0,95,0.00,,---,0.74,VWS V14.01,2013-03-06 03:49:00,
2013-03-05 22:50:00,41.0,39.7,29.61,WSW,257,1.0,2.0,95,0.01,,---,0.75,VWS V14.01,2013-03-06 03:50:00,
2013-03-05 22:55:00,41.0,39.7,29.63,WSW,257,2.0,2.0,95,0.00,,---,0.74,VWS V14.01,2013-03-06 03:55:00,
2013-03-05 23:00:00,41.0,39.7,29.63,WSW,246,2.0,2.0,95,0.00,,---,0.74,VWS V14.01,2013-03-06 04:00:00,
2013-03-05 23:05:00,41.0,39.7,29.63,West,263,1.0,5.0,95,0.01,,---,0.75,VWS V14.01,2013-03-06 04:05:00,
2013-03-05 23:10:00,41.0,39.7,29.63,WSW,246,1.0,2.0,95,0.01,,---,0.75,VWS V14.01,2013-03-06 04:10:00,
2013-03-05 23:15:00,40.9,39.6,29.63,WSW,253,3.0,3.0,95,0.01,,---,0.75,VWS V14.01,2013-03-06 04:15:00,
2013-03-05 23:20:00,41.0,39.7,29.63,WNW,302,0.0,0.0,95,0.01,,---,0.75,VWS V14.01,2013-03-06 04:20:00,
2013-03-05 23:25:00,41.0,39.7,29.63,SSE,167,1.0,3.0,95,0.01,,---,0.75,VWS V14.01,2013-03-06 04:25:00,
2013-03-05 23:30:00,41.0,39.7,29.63,WSW,257,1.0,3.0,95,0.01,,---,0.75,VWS V14.01,2013-03-06 04:30:00,
2013-03-05 23:35:00,41.0,39.7,29.62,WSW,257,0.0,3.0,95,0.01,,---,0.75,VWS V14.01,2013-03-06 04:35:00,
2013-03-05 23:40:00,41.0,39.7,29.61,WSW,257,0.0,0.0,95,0.01,,---,0.75,VWS V14.01,2013-03-06 04:40:00,
2013-03-05 23:46:00,41.0,39.7,29.62,WSW,257,1.0,2.0,95,0.01,,---,0.75,VWS V14.01,2013-03-06 04:46:00,
2013-03-05 23:50:00,40.9,39.6,29.61,WSW,238,0.0,2.0,95,0.01,,---,0.01,VWS V14.01,2013-03-06 04:50:00,
2013-03-05 23:51:00,41.0,39.7,29.61,WSW,257,0.0,1.0,95,0.01,,---,0.75,VWS V14.01,2013-03-06 04:51:00,
2013-03-05 23:56:00,41.1,39.8,29.61,WSW,257,0.0,1.0,95,0.01,,---,0.75,VWS V14.01,2013-03-06 04:56:00,